Terminal Aerodrome Forecast
Issued by NWS

Home | Current Version | Previous Version | Text Only | Print | Product List | Glossary On
Versions: 1 2 3 4 5 6 7 8 9 10 11 12 13 14 15 16 17
000
FTUS45 KTWC 241123
TAFOLS
TAF
KOLS 241123Z 2412/2512 VRB04KT P6SM FEW150
     FM241700 28009KT P6SM SCT120 BKN180
     FM242100 32011KT P6SM VCSH SCT100 BKN150
     FM250300 12010KT P6SM SCT120 OVC180=

USA.gov is the U.S. government's official web portal to all federal, state and local government web resources and services.